Nearby METAR Reports

 

KDAA - Fort Belvoir/Dav, Virginia, USA
Distance from station: SE 9mi, 15km
Updated: Fri, 01-Jul-2022 6:56am EDT
Clear
Clear
 Wind from SSE
Wind: SSE 3 mph , 6 km/h
Temperature: 72°F , 22°C
Dew Point: 72°F , 22°C
Humidity: 100%
Barometer: 30.09 inHg , 1019 hPa
Clouds: Clear
Visibility: 10 miles , 16 km
2022/07/01 10:56 KDAA 011056Z AUTO 15003KT 10SM CLR 22/22 A3009 RMK AO2 SLP192 T02210221 $
KIAD - Wash Dc/Dulles, Virginia, USA
Distance from station: NW 12mi, 19km
Updated: Fri, 01-Jul-2022 6:52am EDT
Few Clouds
Few Clouds
 Wind from SSW
Wind: SSW 7 mph , 11 km/h
Temperature: 73°F , 23°C
Dew Point: 68°F , 20°C
Humidity: 83%
Barometer: 30.10 inHg , 1019.3 hPa
Clouds: Few Clouds
Visibility: 10 miles , 16 km
Cloud details: Few Clouds 25000 ft
2022/07/01 10:52 KIAD 011052Z 20006KT 10SM FEW250 23/20 A3010 RMK AO2 SLP188 T02280200
 
KHEF - Manassas Muni, Virginia, USA
Distance from station: WSW 14mi, 22km
Updated: Fri, 01-Jul-2022 6:56am EDT
Few Clouds
Few Clouds
 Wind from calm
Wind: Calm
Temperature: 70°F , 21°C
Dew Point: 68°F , 20°C
Humidity: 94%
Barometer: 30.11 inHg , 1019.6 hPa
Clouds: Few Clouds
Visibility: 9 miles , 14 km
Cloud details: Few Clouds 200 ft
2022/07/01 10:56 KHEF 011056Z 00000KT 9SM FEW002 21/20 A3011 RMK AO2 SLP198 T02060200
KDCA - Washington/Natl, Washington D.c., USA
Distance from station: ENE 14mi, 23km
Updated: Fri, 01-Jul-2022 6:52am EDT
Few Clouds
Few Clouds
 Wind from S
Wind: S 6 mph , 9 km/h
Temperature: 75°F , 24°C
Dew Point: 70°F , 21°C
Humidity: 83%
Barometer: 30.10 inHg , 1019.3 hPa
Clouds: Few Clouds
Visibility: 10 miles , 16 km
Cloud details: Few Clouds 14000 ft
Few Clouds 25000 ft
2022/07/01 10:52 KDCA 011052Z 19005KT 10SM FEW140 FEW250 24/21 A3010 RMK AO2 SLP193 T02390206
 
KNYG - Quantico Mcaf, Virginia, USA
Distance from station: S 21mi, 34km
Updated: Fri, 01-Jul-2022 6:56am EDT
Clear
Clear
 Wind from SSW
Wind: SSW 6 mph , 9 km/h
Temperature: 75°F , 24°C
Dew Point: 68°F , 20°C
Humidity: 78%
Barometer: 30.11 inHg , 1019.6 hPa
Clouds: Clear
Visibility: 8 miles , 13 km
2022/07/01 10:56 KNYG 011056Z AUTO 21005KT 8SM CLR 24/20 A3011 RMK AO2 SLP197 T02440200
KADW - Andrews Afb, Maryland, USA
Distance from station: E 23mi, 37km
Updated: Fri, 01-Jul-2022 6:56am EDT
Clear
Clear
 Wind from SSW
Wind: SSW 8 mph , 13 km/h
Temperature: 73°F , 23°C
Dew Point: 68°F , 20°C
Humidity: 83%
Barometer: 30.08 inHg , 1018.6 hPa
Clouds: Clear
Visibility: 10 miles , 16 km
2022/07/01 10:56 KADW 011056Z AUTO 20007KT 10SM CLR 23/20 A3008 RMK AO2 SLP190 T02290202 $
 
KJYO - Leesburg/Godfrey, Virginia, USA
Distance from station: NW 23mi, 37km
Updated: Fri, 01-Jul-2022 7:55am EDT
Clear
Clear
 Wind from calm
Wind: Calm
Temperature: 73°F , 23°C
Dew Point: 70°F , 21°C
Humidity: 89%
Barometer: 30.11 inHg , 1019.6 hPa
Clouds: Clear
Visibility: 10 miles , 16 km
2022/07/01 11:55 KJYO 011155Z AUTO 00000KT 10SM CLR 23/21 A3011 RMK AO2 PWINO
KCGS - College Park, Maryland, USA
Distance from station: ENE 24mi, 38km
Updated: Fri, 01-Jul-2022 7:38am EDT
Clear
Clear
 Wind from SSW
Wind: SSW 3 mph , 6 km/h
Barometer: 30.09 inHg , 1019 hPa
Clouds: Clear
Visibility: 10 miles , 16 km
2022/07/01 11:38 KCGS 011138Z AUTO 21003KT 10SM CLR A3009 RMK AO1
 
KGAI - Gaithersburg, Maryland, USA
Distance from station: NNE 26mi, 41km
Updated: Fri, 01-Jul-2022 6:56am EDT
Clear
Clear
 Wind from calm
Wind: Calm
Temperature: 73°F , 23°C
Dew Point: 68°F , 20°C
Humidity: 83%
Barometer: 30.12 inHg , 1020 hPa
Clouds: Clear
Visibility: 10 miles , 16 km
2022/07/01 10:56 KGAI 011056Z AUTO 00000KT 10SM CLR 23/20 A3012 RMK AO2 SLP207 T02280200
KHWY - Warrenton, Virginia, USA
Distance from station: SW 28mi, 44km
Updated: Fri, 01-Jul-2022 7:35am EDT
Clear
Clear
 Wind from SSW
Wind: SSW 5 mph , 7 km/h
Temperature: 73°F , 23°C
Dew Point: 70°F , 21°C
Humidity: 89%
Barometer: 30.10 inHg , 1019.3 hPa
Clouds: Clear
Visibility: 10 miles , 16 km
2022/07/01 11:35 KHWY 011135Z AUTO 21004KT 10SM CLR 23/21 A3010 RMK AO2 T02330208
 
KRMN - Stafford Regnl, Virginia, USA
Distance from station: SSW 29mi, 47km
Updated: Fri, 01-Jul-2022 6:55am EDT
Clear
Clear
 Wind from calm
Wind: Calm
Temperature: 77°F , 25°C
Dew Point: 68°F , 20°C
Humidity: 74%
Barometer: 30.15 inHg , 1021 hPa
Clouds: Clear
Visibility: 10 miles , 16 km
2022/07/01 10:55 KRMN 011055Z AUTO 00000KT 10SM CLR 25/20 A3015 RMK AO2 T02510203
KFME - Fort Meade, Maryland, USA
Distance from station: NE 34mi, 55km
Updated: Fri, 01-Jul-2022 7:39am EDT
Clear
Clear
 Wind from calm
Wind: Calm
Temperature: 70°F , 21°C
Dew Point: 70°F , 21°C
Humidity: 100%
Barometer: 30.11 inHg , 1019.6 hPa
Clouds: Clear
Visibility: 7 miles , 11 km
2022/07/01 11:39 KFME 011139Z AUTO 00000KT 7SM CLR 21/21 A3011 RMK AO1
 
KCJR - Culpeper, Virginia, USA
Distance from station: WSW 36mi, 58km
Updated: Fri, 01-Jul-2022 7:35am EDT
Clear
Clear
 Wind from SSW
Wind: SSW 5 mph , 7 km/h
Temperature: 73°F , 23°C
Dew Point: 70°F , 21°C
Humidity: 89%
Barometer: 30.12 inHg , 1020 hPa
Clouds: Clear
Visibility: 10 miles , 16 km
2022/07/01 11:35 KCJR 011135Z AUTO 20004KT 10SM CLR 23/21 A3012 RMK AO2 T02320209
KEZF - Fredericksb/Shan, Virginia, USA
Distance from station: SSW 38mi, 62km
Updated: Fri, 01-Jul-2022 7:35am EDT
Clear
Clear
 Wind from SSW
Wind: SSW 7 mph , 11 km/h
Temperature: 75°F , 24°C
Dew Point: 68°F , 20°C
Humidity: 78%
Barometer: 30.10 inHg , 1019.3 hPa
Clouds: Clear
Visibility: 10 miles , 16 km
2022/07/01 11:35 KEZF 011135Z AUTO 21006KT 10SM CLR 24/20 A3010 RMK AO2 T02400200
 
KBWI - Balto/Wash Intl, Maryland, USA
Distance from station: NE 41mi, 66km
Updated: Fri, 01-Jul-2022 6:54am EDT
Few Clouds
Few Clouds
 Wind from SSW
Wind: SSW 3 mph , 6 km/h
Temperature: 73°F , 23°C
Dew Point: 70°F , 21°C
Humidity: 89%
Barometer: 30.09 inHg , 1019 hPa
Clouds: Few Clouds
Visibility: 10 miles , 16 km
Cloud details: Few Clouds 6000 ft
Few Clouds 25000 ft
2022/07/01 10:54 KBWI 011054Z 21003KT 10SM FEW060 FEW250 23/21 A3009 RMK AO2 SLP187 T02330206 $
KFDK - Frederick, Maryland, USA
Distance from station: N 42mi, 68km
Updated: Fri, 01-Jul-2022 7:47am EDT
Clear
Clear
 Wind from SW
Wind: SW 6 mph , 9 km/h
Temperature: 73°F , 23°C
Dew Point: 70°F , 21°C
Humidity: 89%
Barometer: 30.10 inHg , 1019.3 hPa
Clouds: Clear
Visibility: 10 miles , 16 km
2022/07/01 11:47 KFDK 011147Z 22005KT 10SM CLR 23/21 A3010
 
KNAK - Annapolis/Naval, Maryland, USA
Distance from station: ENE 45mi, 73km
Updated: Fri, 01-Jul-2022 6:54am EDT
Clear
Clear
 
Temperature: 75°F , 24°C
Dew Point: 70°F , 21°C
Humidity: 83%
Barometer: 30.09 inHg , 1019 hPa
Clouds: Clear
Visibility: 10 miles , 16 km
2022/07/01 10:54 KNAK 011054Z AUTO 10SM CLR 24/21 A3009 RMK AO2 SLP191 T02390211 $